sensor_id;sensor_type;location;lat;lon;timestamp;P1;durP1;ratioP1;P2;durP2;ratioP2
68072;SDS011;54862;51.502;7.446;2022-07-17T00:02:14;7.57;;;2.70;;
68072;SDS011;54862;51.502;7.446;2022-07-17T00:04:40;6.57;;;2.42;;
68072;SDS011;54862;51.502;7.446;2022-07-17T00:07:06;7.75;;;2.80;;
68072;SDS011;54862;51.502;7.446;2022-07-17T00:09:32;9.23;;;2.50;;
68072;SDS011;54862;51.502;7.446;2022-07-17T00:11:58;7.95;;;2.67;;
68072;SDS011;54862;51.502;7.446;2022-07-17T00:14:24;7.47;;;2.65;;
68072;SDS011;54862;51.502;7.446;2022-07-17T00:16:51;9.80;;;2.97;;
68072;SDS011;54862;51.502;7.446;2022-07-17T00:19:18;7.05;;;2.75;;
68072;SDS011;54862;51.502;7.446;2022-07-17T00:21:45;8.27;;;2.65;;
68072;SDS011;54862;51.502;7.446;2022-07-17T00:24:11;8.13;;;2.65;;
68072;SDS011;54862;51.502;7.446;2022-07-17T00:26:44;8.27;;;2.95;;
68072;SDS011;54862;51.502;7.446;2022-07-17T00:29:10;8.13;;;2.42;;
68072;SDS011;54862;51.502;7.446;2022-07-17T00:31:36;8.32;;;2.70;;
68072;SDS011;54862;51.502;7.446;2022-07-17T00:34:02;8.25;;;2.67;;
68072;SDS011;54862;51.502;7.446;2022-07-17T00:36:28;9.68;;;2.55;;
68072;SDS011;54862;51.502;7.446;2022-07-17T00:38:54;7.47;;;2.40;;
68072;SDS011;54862;51.502;7.446;2022-07-17T00:41:20;6.30;;;2.55;;
68072;SDS011;54862;51.502;7.446;2022-07-17T00:43:46;8.90;;;2.30;;
68072;SDS011;54862;51.502;7.446;2022-07-17T00:46:13;5.43;;;2.30;;
68072;SDS011;54862;51.502;7.446;2022-07-17T00:48:39;5.22;;;2.25;;
68072;SDS011;54862;51.502;7.446;2022-07-17T00:51:05;7.40;;;2.25;;
68072;SDS011;54862;51.502;7.446;2022-07-17T00:53:32;6.65;;;3.05;;
68072;SDS011;54862;51.502;7.446;2022-07-17T00:56:01;5.80;;;2.42;;
68072;SDS011;54862;51.502;7.446;2022-07-17T00:58:27;4.35;;;1.90;;
68072;SDS011;54862;51.502;7.446;2022-07-17T01:00:55;4.53;;;2.05;;
68072;SDS011;54862;51.502;7.446;2022-07-17T01:03:22;7.50;;;2.10;;
68072;SDS011;54862;51.502;7.446;2022-07-17T01:05:48;4.72;;;2.33;;
68072;SDS011;54862;51.502;7.446;2022-07-17T01:08:15;4.68;;;2.00;;
68072;SDS011;54862;51.502;7.446;2022-07-17T01:10:41;4.90;;;2.00;;
68072;SDS011;54862;51.502;7.446;2022-07-17T01:13:07;8.18;;;2.97;;
68072;SDS011;54862;51.502;7.446;2022-07-17T01:15:35;6.00;;;1.70;;
68072;SDS011;54862;51.502;7.446;2022-07-17T01:18:09;5.38;;;2.03;;
68072;SDS011;54862;51.502;7.446;2022-07-17T01:20:36;7.38;;;2.00;;
68072;SDS011;54862;51.502;7.446;2022-07-17T01:23:03;8.02;;;2.58;;
68072;SDS011;54862;51.502;7.446;2022-07-17T01:25:29;4.97;;;2.15;;
68072;SDS011;54862;51.502;7.446;2022-07-17T01:27:55;6.35;;;1.90;;
68072;SDS011;54862;51.502;7.446;2022-07-17T01:30:21;7.63;;;2.20;;
68072;SDS011;54862;51.502;7.446;2022-07-17T01:32:47;5.63;;;2.33;;
68072;SDS011;54862;51.502;7.446;2022-07-17T01:35:13;6.22;;;2.17;;
68072;SDS011;54862;51.502;7.446;2022-07-17T01:37:41;5.47;;;2.05;;
68072;SDS011;54862;51.502;7.446;2022-07-17T01:40:08;3.90;;;2.05;;
68072;SDS011;54862;51.502;7.446;2022-07-17T01:42:35;6.03;;;2.20;;
68072;SDS011;54862;51.502;7.446;2022-07-17T01:45:01;7.63;;;2.20;;
68072;SDS011;54862;51.502;7.446;2022-07-17T01:47:27;4.15;;;2.00;;
68072;SDS011;54862;51.502;7.446;2022-07-17T01:49:54;4.72;;;1.67;;
68072;SDS011;54862;51.502;7.446;2022-07-17T01:52:21;6.50;;;2.17;;
68072;SDS011;54862;51.502;7.446;2022-07-17T01:54:47;6.55;;;1.90;;
68072;SDS011;54862;51.502;7.446;2022-07-17T01:57:13;5.97;;;2.20;;
68072;SDS011;54862;51.502;7.446;2022-07-17T01:59:39;5.80;;;2.17;;
68072;SDS011;54862;51.502;7.446;2022-07-17T02:02:06;5.90;;;2.35;;
68072;SDS011;54862;51.502;7.446;2022-07-17T02:04:33;5.97;;;2.22;;
68072;SDS011;54862;51.502;7.446;2022-07-17T02:06:59;6.18;;;1.80;;
68072;SDS011;54862;51.502;7.446;2022-07-17T02:09:25;4.80;;;2.47;;
68072;SDS011;54862;51.502;7.446;2022-07-17T02:11:51;6.40;;;1.98;;
68072;SDS011;54862;51.502;7.446;2022-07-17T02:14:17;6.03;;;2.00;;
68072;SDS011;54862;51.502;7.446;2022-07-17T02:16:44;5.45;;;2.10;;
68072;SDS011;54862;51.502;7.446;2022-07-17T02:19:10;4.75;;;2.05;;
68072;SDS011;54862;51.502;7.446;2022-07-17T02:21:36;5.95;;;2.40;;
68072;SDS011;54862;51.502;7.446;2022-07-17T02:24:02;4.07;;;2.00;;
68072;SDS011;54862;51.502;7.446;2022-07-17T02:26:28;5.65;;;2.42;;
68072;SDS011;54862;51.502;7.446;2022-07-17T02:28:54;6.15;;;2.15;;
68072;SDS011;54862;51.502;7.446;2022-07-17T02:31:20;7.13;;;2.70;;
68072;SDS011;54862;51.502;7.446;2022-07-17T02:33:46;6.95;;;2.72;;
68072;SDS011;54862;51.502;7.446;2022-07-17T02:36:12;7.28;;;2.90;;
68072;SDS011;54862;51.502;7.446;2022-07-17T02:38:39;7.40;;;2.63;;
68072;SDS011;54862;51.502;7.446;2022-07-17T02:41:05;6.43;;;2.58;;
68072;SDS011;54862;51.502;7.446;2022-07-17T02:43:31;7.38;;;2.55;;
68072;SDS011;54862;51.502;7.446;2022-07-17T02:45:57;6.53;;;2.85;;
68072;SDS011;54862;51.502;7.446;2022-07-17T02:48:23;9.20;;;2.95;;
68072;SDS011;54862;51.502;7.446;2022-07-17T02:50:49;5.57;;;2.58;;
68072;SDS011;54862;51.502;7.446;2022-07-17T02:53:15;5.95;;;2.70;;
68072;SDS011;54862;51.502;7.446;2022-07-17T02:55:41;5.47;;;2.75;;
68072;SDS011;54862;51.502;7.446;2022-07-17T02:58:07;8.15;;;2.45;;
68072;SDS011;54862;51.502;7.446;2022-07-17T03:00:33;5.70;;;2.60;;
68072;SDS011;54862;51.502;7.446;2022-07-17T03:02:59;7.95;;;2.63;;
68072;SDS011;54862;51.502;7.446;2022-07-17T03:05:25;6.15;;;2.67;;
68072;SDS011;54862;51.502;7.446;2022-07-17T03:07:51;4.68;;;2.50;;
68072;SDS011;54862;51.502;7.446;2022-07-17T03:10:17;6.90;;;2.75;;
68072;SDS011;54862;51.502;7.446;2022-07-17T03:12:43;4.07;;;2.20;;
68072;SDS011;54862;51.502;7.446;2022-07-17T03:15:09;4.93;;;2.30;;
68072;SDS011;54862;51.502;7.446;2022-07-17T03:17:36;7.63;;;2.53;;
68072;SDS011;54862;51.502;7.446;2022-07-17T03:20:03;6.60;;;2.63;;
68072;SDS011;54862;51.502;7.446;2022-07-17T03:22:29;6.82;;;2.40;;
68072;SDS011;54862;51.502;7.446;2022-07-17T03:24:55;5.60;;;2.20;;
68072;SDS011;54862;51.502;7.446;2022-07-17T03:27:21;8.48;;;2.20;;
68072;SDS011;54862;51.502;7.446;2022-07-17T03:29:47;5.68;;;2.50;;
68072;SDS011;54862;51.502;7.446;2022-07-17T03:32:13;5.95;;;2.30;;
68072;SDS011;54862;51.502;7.446;2022-07-17T03:34:39;5.75;;;2.30;;
68072;SDS011;54862;51.502;7.446;2022-07-17T03:37:05;8.75;;;2.35;;
68072;SDS011;54862;51.502;7.446;2022-07-17T03:39:31;7.65;;;2.22;;
68072;SDS011;54862;51.502;7.446;2022-07-17T03:41:57;4.68;;;2.03;;
68072;SDS011;54862;51.502;7.446;2022-07-17T03:44:23;4.78;;;2.40;;
68072;SDS011;54862;51.502;7.446;2022-07-17T03:46:49;6.93;;;2.33;;
68072;SDS011;54862;51.502;7.446;2022-07-17T03:49:15;5.07;;;2.20;;
68072;SDS011;54862;51.502;7.446;2022-07-17T03:51:41;6.25;;;2.30;;
68072;SDS011;54862;51.502;7.446;2022-07-17T03:54:07;7.35;;;2.40;;
68072;SDS011;54862;51.502;7.446;2022-07-17T03:56:33;4.20;;;2.10;;
68072;SDS011;54862;51.502;7.446;2022-07-17T03:58:59;7.45;;;2.20;;
68072;SDS011;54862;51.502;7.446;2022-07-17T04:01:25;5.32;;;2.20;;
68072;SDS011;54862;51.502;7.446;2022-07-17T04:03:51;4.68;;;2.20;;
68072;SDS011;54862;51.502;7.446;2022-07-17T04:06:17;5.55;;;2.53;;
68072;SDS011;54862;51.502;7.446;2022-07-17T04:08:43;6.82;;;2.63;;
68072;SDS011;54862;51.502;7.446;2022-07-17T04:11:09;3.97;;;2.03;;
68072;SDS011;54862;51.502;7.446;2022-07-17T04:13:35;5.63;;;2.50;;
68072;SDS011;54862;51.502;7.446;2022-07-17T04:16:02;7.00;;;2.33;;
68072;SDS011;54862;51.502;7.446;2022-07-17T04:18:35;5.30;;;2.22;;
68072;SDS011;54862;51.502;7.446;2022-07-17T04:21:02;5.10;;;2.28;;
68072;SDS011;54862;51.502;7.446;2022-07-17T04:23:29;4.47;;;1.98;;
68072;SDS011;54862;51.502;7.446;2022-07-17T04:25:55;6.15;;;2.20;;
68072;SDS011;54862;51.502;7.446;2022-07-17T04:28:21;4.18;;;1.98;;
68072;SDS011;54862;51.502;7.446;2022-07-17T04:30:47;5.13;;;2.13;;
68072;SDS011;54862;51.502;7.446;2022-07-17T04:33:13;3.97;;;2.00;;
68072;SDS011;54862;51.502;7.446;2022-07-17T04:35:40;7.07;;;2.17;;
68072;SDS011;54862;51.502;7.446;2022-07-17T04:38:06;5.22;;;2.42;;
68072;SDS011;54862;51.502;7.446;2022-07-17T04:40:33;6.00;;;2.42;;
68072;SDS011;54862;51.502;7.446;2022-07-17T04:42:59;5.57;;;2.60;;
68072;SDS011;54862;51.502;7.446;2022-07-17T04:45:25;6.25;;;2.58;;
68072;SDS011;54862;51.502;7.446;2022-07-17T04:47:51;7.63;;;2.53;;
68072;SDS011;54862;51.502;7.446;2022-07-17T04:50:17;4.68;;;2.20;;
68072;SDS011;54862;51.502;7.446;2022-07-17T04:52:43;5.85;;;2.40;;
68072;SDS011;54862;51.502;7.446;2022-07-17T04:55:09;7.32;;;3.22;;
68072;SDS011;54862;51.502;7.446;2022-07-17T04:57:36;6.32;;;2.67;;
68072;SDS011;54862;51.502;7.446;2022-07-17T05:00:05;6.55;;;2.50;;
68072;SDS011;54862;51.502;7.446;2022-07-17T05:02:31;6.47;;;2.42;;
68072;SDS011;54862;51.502;7.446;2022-07-17T05:04:58;8.73;;;2.58;;
68072;SDS011;54862;51.502;7.446;2022-07-17T05:07:23;8.82;;;2.47;;
68072;SDS011;54862;51.502;7.446;2022-07-17T05:09:50;5.35;;;2.33;;
68072;SDS011;54862;51.502;7.446;2022-07-17T05:12:15;6.28;;;2.38;;
68072;SDS011;54862;51.502;7.446;2022-07-17T05:14:41;7.85;;;2.50;;
68072;SDS011;54862;51.502;7.446;2022-07-17T05:17:07;7.93;;;3.08;;
68072;SDS011;54862;51.502;7.446;2022-07-17T05:19:33;7.35;;;2.60;;
68072;SDS011;54862;51.502;7.446;2022-07-17T05:22:00;5.50;;;2.40;;
68072;SDS011;54862;51.502;7.446;2022-07-17T05:24:26;5.68;;;2.30;;
68072;SDS011;54862;51.502;7.446;2022-07-17T05:26:52;6.03;;;2.78;;
68072;SDS011;54862;51.502;7.446;2022-07-17T05:29:18;7.72;;;2.60;;
68072;SDS011;54862;51.502;7.446;2022-07-17T05:31:44;8.48;;;2.47;;
68072;SDS011;54862;51.502;7.446;2022-07-17T05:34:10;7.82;;;2.55;;
68072;SDS011;54862;51.502;7.446;2022-07-17T05:36:36;6.95;;;2.15;;
68072;SDS011;54862;51.502;7.446;2022-07-17T05:39:02;6.75;;;2.25;;
68072;SDS011;54862;51.502;7.446;2022-07-17T05:41:28;5.47;;;2.30;;
68072;SDS011;54862;51.502;7.446;2022-07-17T05:43:55;3.22;;;2.00;;
68072;SDS011;54862;51.502;7.446;2022-07-17T05:46:21;7.30;;;2.75;;
68072;SDS011;54862;51.502;7.446;2022-07-17T05:48:47;5.80;;;2.10;;
68072;SDS011;54862;51.502;7.446;2022-07-17T05:51:13;5.78;;;2.13;;
68072;SDS011;54862;51.502;7.446;2022-07-17T05:53:39;4.53;;;2.00;;
68072;SDS011;54862;51.502;7.446;2022-07-17T05:56:05;5.65;;;2.00;;
68072;SDS011;54862;51.502;7.446;2022-07-17T05:58:31;6.47;;;2.00;;
68072;SDS011;54862;51.502;7.446;2022-07-17T06:00:57;4.85;;;2.00;;
68072;SDS011;54862;51.502;7.446;2022-07-17T06:03:23;4.78;;;2.10;;
68072;SDS011;54862;51.502;7.446;2022-07-17T06:05:49;4.00;;;2.00;;
68072;SDS011;54862;51.502;7.446;2022-07-17T06:08:15;4.43;;;2.08;;
68072;SDS011;54862;51.502;7.446;2022-07-17T06:10:41;4.43;;;1.80;;
68072;SDS011;54862;51.502;7.446;2022-07-17T06:13:07;3.42;;;1.90;;
68072;SDS011;54862;51.502;7.446;2022-07-17T06:15:33;5.47;;;1.95;;
68072;SDS011;54862;51.502;7.446;2022-07-17T06:18:00;4.18;;;1.92;;
68072;SDS011;54862;51.502;7.446;2022-07-17T06:20:26;2.58;;;1.73;;
68072;SDS011;54862;51.502;7.446;2022-07-17T06:22:52;4.63;;;1.63;;
68072;SDS011;54862;51.502;7.446;2022-07-17T06:25:18;3.85;;;1.98;;
68072;SDS011;54862;51.502;7.446;2022-07-17T06:27:44;6.95;;;1.85;;
68072;SDS011;54862;51.502;7.446;2022-07-17T06:30:11;7.05;;;2.20;;
68072;SDS011;54862;51.502;7.446;2022-07-17T06:32:38;5.18;;;1.95;;
68072;SDS011;54862;51.502;7.446;2022-07-17T06:35:04;3.00;;;1.80;;
68072;SDS011;54862;51.502;7.446;2022-07-17T06:37:30;5.13;;;1.98;;
68072;SDS011;54862;51.502;7.446;2022-07-17T06:39:56;6.03;;;2.00;;
68072;SDS011;54862;51.502;7.446;2022-07-17T06:42:22;4.50;;;1.60;;
68072;SDS011;54862;51.502;7.446;2022-07-17T06:44:48;3.67;;;1.73;;
68072;SDS011;54862;51.502;7.446;2022-07-17T06:47:14;9.25;;;2.13;;
68072;SDS011;54862;51.502;7.446;2022-07-17T06:49:40;6.13;;;2.05;;
68072;SDS011;54862;51.502;7.446;2022-07-17T06:52:06;5.00;;;1.70;;
68072;SDS011;54862;51.502;7.446;2022-07-17T06:54:32;3.00;;;1.75;;
68072;SDS011;54862;51.502;7.446;2022-07-17T06:56:58;5.97;;;1.70;;
68072;SDS011;54862;51.502;7.446;2022-07-17T06:59:24;4.70;;;1.80;;
68072;SDS011;54862;51.502;7.446;2022-07-17T07:01:50;4.13;;;1.80;;
68072;SDS011;54862;51.502;7.446;2022-07-17T07:04:16;6.40;;;2.17;;
68072;SDS011;54862;51.502;7.446;2022-07-17T07:06:42;4.57;;;1.85;;
68072;SDS011;54862;51.502;7.446;2022-07-17T07:09:08;3.72;;;1.85;;
68072;SDS011;54862;51.502;7.446;2022-07-17T07:11:36;5.68;;;1.73;;
68072;SDS011;54862;51.502;7.446;2022-07-17T07:14:02;4.47;;;1.92;;
68072;SDS011;54862;51.502;7.446;2022-07-17T07:16:28;5.22;;;1.70;;
68072;SDS011;54862;51.502;7.446;2022-07-17T07:18:54;3.65;;;1.65;;
68072;SDS011;54862;51.502;7.446;2022-07-17T07:21:20;4.57;;;1.90;;
68072;SDS011;54862;51.502;7.446;2022-07-17T07:23:48;3.92;;;1.75;;
68072;SDS011;54862;51.502;7.446;2022-07-17T07:26:14;2.33;;;1.52;;
68072;SDS011;54862;51.502;7.446;2022-07-17T07:28:40;6.15;;;1.88;;
68072;SDS011;54862;51.502;7.446;2022-07-17T07:31:06;7.22;;;2.00;;
68072;SDS011;54862;51.502;7.446;2022-07-17T07:33:32;6.28;;;1.60;;
68072;SDS011;54862;51.502;7.446;2022-07-17T07:35:58;4.35;;;1.88;;
68072;SDS011;54862;51.502;7.446;2022-07-17T07:38:24;6.38;;;2.03;;
68072;SDS011;54862;51.502;7.446;2022-07-17T07:40:50;4.82;;;1.88;;
68072;SDS011;54862;51.502;7.446;2022-07-17T07:43:16;3.75;;;1.73;;
68072;SDS011;54862;51.502;7.446;2022-07-17T07:45:42;3.92;;;1.90;;
68072;SDS011;54862;51.502;7.446;2022-07-17T07:48:09;6.85;;;1.90;;
68072;SDS011;54862;51.502;7.446;2022-07-17T07:50:35;4.57;;;1.65;;
68072;SDS011;54862;51.502;7.446;2022-07-17T07:53:01;4.38;;;1.90;;
68072;SDS011;54862;51.502;7.446;2022-07-17T07:55:27;3.90;;;1.75;;
68072;SDS011;54862;51.502;7.446;2022-07-17T07:58:09;6.82;;;1.75;;
68072;SDS011;54862;51.502;7.446;2022-07-17T08:00:35;5.15;;;1.70;;
68072;SDS011;54862;51.502;7.446;2022-07-17T08:03:02;4.38;;;1.65;;
68072;SDS011;54862;51.502;7.446;2022-07-17T08:05:28;4.70;;;1.70;;
68072;SDS011;54862;51.502;7.446;2022-07-17T08:07:54;5.65;;;1.90;;
68072;SDS011;54862;51.502;7.446;2022-07-17T08:10:20;4.82;;;2.22;;
68072;SDS011;54862;51.502;7.446;2022-07-17T08:12:46;5.18;;;1.73;;
68072;SDS011;54862;51.502;7.446;2022-07-17T08:15:17;5.22;;;1.90;;
68072;SDS011;54862;51.502;7.446;2022-07-17T08:17:44;5.13;;;2.08;;
68072;SDS011;54862;51.502;7.446;2022-07-17T08:20:10;3.05;;;1.52;;
68072;SDS011;54862;51.502;7.446;2022-07-17T08:22:36;5.15;;;2.00;;
68072;SDS011;54862;51.502;7.446;2022-07-17T08:25:03;7.10;;;2.30;;
68072;SDS011;54862;51.502;7.446;2022-07-17T08:27:34;5.95;;;2.50;;
68072;SDS011;54862;51.502;7.446;2022-07-17T08:30:01;5.85;;;1.60;;
68072;SDS011;54862;51.502;7.446;2022-07-17T08:32:27;2.90;;;1.60;;
68072;SDS011;54862;51.502;7.446;2022-07-17T08:34:53;5.40;;;2.00;;
68072;SDS011;54862;51.502;7.446;2022-07-17T08:37:19;4.95;;;1.73;;
68072;SDS011;54862;51.502;7.446;2022-07-17T08:39:45;4.93;;;1.70;;
68072;SDS011;54862;51.502;7.446;2022-07-17T08:42:11;4.88;;;1.60;;
68072;SDS011;54862;51.502;7.446;2022-07-17T08:44:41;5.50;;;1.85;;
68072;SDS011;54862;51.502;7.446;2022-07-17T08:47:07;5.45;;;1.80;;
68072;SDS011;54862;51.502;7.446;2022-07-17T08:49:33;4.75;;;2.20;;
68072;SDS011;54862;51.502;7.446;2022-07-17T08:52:02;3.75;;;1.58;;
68072;SDS011;54862;51.502;7.446;2022-07-17T08:54:29;4.22;;;1.60;;
68072;SDS011;54862;51.502;7.446;2022-07-17T08:56:56;7.85;;;1.92;;
68072;SDS011;54862;51.502;7.446;2022-07-17T08:59:22;3.17;;;1.83;;
68072;SDS011;54862;51.502;7.446;2022-07-17T09:01:48;6.35;;;1.70;;
68072;SDS011;54862;51.502;7.446;2022-07-17T09:04:16;2.53;;;1.58;;
68072;SDS011;54862;51.502;7.446;2022-07-17T09:06:42;5.40;;;1.70;;
68072;SDS011;54862;51.502;7.446;2022-07-17T09:09:10;6.20;;;1.60;;
68072;SDS011;54862;51.502;7.446;2022-07-17T09:14:08;4.88;;;1.63;;
68072;SDS011;54862;51.502;7.446;2022-07-17T09:16:35;4.70;;;1.70;;
68072;SDS011;54862;51.502;7.446;2022-07-17T09:19:02;5.55;;;1.92;;
68072;SDS011;54862;51.502;7.446;2022-07-17T09:21:28;4.75;;;1.80;;
68072;SDS011;54862;51.502;7.446;2022-07-17T09:24:01;4.85;;;1.88;;
68072;SDS011;54862;51.502;7.446;2022-07-17T09:26:27;4.35;;;1.50;;
68072;SDS011;54862;51.502;7.446;2022-07-17T09:28:54;6.47;;;1.90;;
68072;SDS011;54862;51.502;7.446;2022-07-17T09:31:30;5.60;;;1.80;;
68072;SDS011;54862;51.502;7.446;2022-07-17T09:33:56;7.90;;;1.80;;
68072;SDS011;54862;51.502;7.446;2022-07-17T09:36:22;5.47;;;1.58;;
68072;SDS011;54862;51.502;7.446;2022-07-17T09:38:52;5.28;;;1.70;;
68072;SDS011;54862;51.502;7.446;2022-07-17T09:41:18;4.07;;;1.67;;
68072;SDS011;54862;51.502;7.446;2022-07-17T09:43:52;4.68;;;1.75;;
68072;SDS011;54862;51.502;7.446;2022-07-17T09:46:22;3.05;;;1.70;;
68072;SDS011;54862;51.502;7.446;2022-07-17T09:48:53;6.28;;;1.80;;
68072;SDS011;54862;51.502;7.446;2022-07-17T09:51:21;4.45;;;1.75;;
68072;SDS011;54862;51.502;7.446;2022-07-17T09:53:48;6.15;;;1.80;;
68072;SDS011;54862;51.502;7.446;2022-07-17T09:56:15;2.75;;;1.60;;
68072;SDS011;54862;51.502;7.446;2022-07-17T09:58:43;6.63;;;1.90;;
68072;SDS011;54862;51.502;7.446;2022-07-17T10:01:09;3.95;;;1.88;;
68072;SDS011;54862;51.502;7.446;2022-07-17T10:03:35;7.10;;;2.08;;
68072;SDS011;54862;51.502;7.446;2022-07-17T10:06:01;3.92;;;1.75;;
68072;SDS011;54862;51.502;7.446;2022-07-17T10:08:28;2.92;;;1.60;;
68072;SDS011;54862;51.502;7.446;2022-07-17T10:10:54;3.05;;;1.60;;
68072;SDS011;54862;51.502;7.446;2022-07-17T10:13:20;5.22;;;1.85;;
68072;SDS011;54862;51.502;7.446;2022-07-17T10:15:46;6.68;;;1.80;;
68072;SDS011;54862;51.502;7.446;2022-07-17T10:18:14;3.42;;;1.50;;
68072;SDS011;54862;51.502;7.446;2022-07-17T10:20:40;4.38;;;1.80;;
68072;SDS011;54862;51.502;7.446;2022-07-17T10:23:15;5.43;;;1.65;;
68072;SDS011;54862;51.502;7.446;2022-07-17T10:25:41;4.28;;;1.73;;
68072;SDS011;54862;51.502;7.446;2022-07-17T10:28:07;3.28;;;1.77;;
68072;SDS011;54862;51.502;7.446;2022-07-17T10:30:34;4.85;;;1.75;;
68072;SDS011;54862;51.502;7.446;2022-07-17T10:33:00;7.20;;;1.90;;
68072;SDS011;54862;51.502;7.446;2022-07-17T10:35:39;3.55;;;1.60;;
68072;SDS011;54862;51.502;7.446;2022-07-17T10:38:12;3.70;;;1.60;;
68072;SDS011;54862;51.502;7.446;2022-07-17T10:40:39;7.65;;;1.88;;
68072;SDS011;54862;51.502;7.446;2022-07-17T10:43:06;4.03;;;1.70;;
68072;SDS011;54862;51.502;7.446;2022-07-17T10:45:34;7.38;;;1.80;;
68072;SDS011;54862;51.502;7.446;2022-07-17T10:48:12;6.15;;;2.10;;
68072;SDS011;54862;51.502;7.446;2022-07-17T10:55:35;6.40;;;1.80;;
68072;SDS011;54862;51.502;7.446;2022-07-17T10:58:01;6.03;;;1.85;;
68072;SDS011;54862;51.502;7.446;2022-07-17T11:00:28;3.25;;;1.60;;
68072;SDS011;54862;51.502;7.446;2022-07-17T11:02:54;5.80;;;2.03;;
68072;SDS011;54862;51.502;7.446;2022-07-17T11:05:20;3.22;;;1.70;;
68072;SDS011;54862;51.502;7.446;2022-07-17T11:07:56;5.18;;;1.80;;
68072;SDS011;54862;51.502;7.446;2022-07-17T11:10:24;7.05;;;1.83;;
68072;SDS011;54862;51.502;7.446;2022-07-17T11:12:54;3.92;;;1.70;;
68072;SDS011;54862;51.502;7.446;2022-07-17T11:15:21;3.88;;;1.60;;
68072;SDS011;54862;51.502;7.446;2022-07-17T11:17:47;4.28;;;1.70;;
68072;SDS011;54862;51.502;7.446;2022-07-17T11:20:14;3.88;;;1.73;;
68072;SDS011;54862;51.502;7.446;2022-07-17T11:22:41;3.75;;;1.65;;
68072;SDS011;54862;51.502;7.446;2022-07-17T11:25:07;3.65;;;1.60;;
68072;SDS011;54862;51.502;7.446;2022-07-17T11:27:34;3.17;;;1.60;;
68072;SDS011;54862;51.502;7.446;2022-07-17T11:30:01;6.38;;;1.98;;
68072;SDS011;54862;51.502;7.446;2022-07-17T11:32:34;4.53;;;1.70;;
68072;SDS011;54862;51.502;7.446;2022-07-17T11:35:00;4.63;;;1.75;;
68072;SDS011;54862;51.502;7.446;2022-07-17T11:37:29;5.32;;;1.73;;
68072;SDS011;54862;51.502;7.446;2022-07-17T11:39:56;5.13;;;1.70;;
68072;SDS011;54862;51.502;7.446;2022-07-17T11:42:22;6.80;;;1.73;;
68072;SDS011;54862;51.502;7.446;2022-07-17T11:44:49;5.60;;;1.60;;
68072;SDS011;54862;51.502;7.446;2022-07-17T11:47:25;5.75;;;1.80;;
68072;SDS011;54862;51.502;7.446;2022-07-17T11:49:51;6.28;;;1.90;;
68072;SDS011;54862;51.502;7.446;2022-07-17T11:52:19;3.80;;;1.60;;
68072;SDS011;54862;51.502;7.446;2022-07-17T11:54:50;4.50;;;1.73;;
68072;SDS011;54862;51.502;7.446;2022-07-17T11:57:16;8.82;;;3.35;;
68072;SDS011;54862;51.502;7.446;2022-07-17T11:59:43;5.03;;;1.95;;
68072;SDS011;54862;51.502;7.446;2022-07-17T12:02:10;5.07;;;2.25;;
68072;SDS011;54862;51.502;7.446;2022-07-17T12:04:36;4.72;;;1.77;;
68072;SDS011;54862;51.502;7.446;2022-07-17T12:07:13;4.25;;;1.85;;
68072;SDS011;54862;51.502;7.446;2022-07-17T12:09:39;6.30;;;1.83;;
68072;SDS011;54862;51.502;7.446;2022-07-17T12:12:05;4.07;;;1.60;;
68072;SDS011;54862;51.502;7.446;2022-07-17T12:14:31;4.85;;;1.70;;
68072;SDS011;54862;51.502;7.446;2022-07-17T12:17:01;6.63;;;1.98;;
68072;SDS011;54862;51.502;7.446;2022-07-17T12:19:28;7.85;;;1.85;;
68072;SDS011;54862;51.502;7.446;2022-07-17T12:22:00;4.80;;;2.38;;
68072;SDS011;54862;51.502;7.446;2022-07-17T12:26:53;5.70;;;1.83;;
68072;SDS011;54862;51.502;7.446;2022-07-17T12:29:21;3.47;;;1.70;;
68072;SDS011;54862;51.502;7.446;2022-07-17T12:31:47;3.85;;;1.73;;
68072;SDS011;54862;51.502;7.446;2022-07-17T12:34:14;6.57;;;1.60;;
68072;SDS011;54862;51.502;7.446;2022-07-17T12:36:40;4.15;;;1.67;;
68072;SDS011;54862;51.502;7.446;2022-07-17T12:39:06;6.68;;;1.88;;
68072;SDS011;54862;51.502;7.446;2022-07-17T12:41:32;5.53;;;1.85;;
68072;SDS011;54862;51.502;7.446;2022-07-17T12:43:58;9.02;;;1.80;;
68072;SDS011;54862;51.502;7.446;2022-07-17T12:46:24;4.57;;;1.70;;
68072;SDS011;54862;51.502;7.446;2022-07-17T12:48:50;3.88;;;1.60;;
68072;SDS011;54862;51.502;7.446;2022-07-17T12:51:16;4.95;;;1.90;;
68072;SDS011;54862;51.502;7.446;2022-07-17T12:53:42;4.03;;;1.92;;
68072;SDS011;54862;51.502;7.446;2022-07-17T12:56:09;4.55;;;2.00;;
68072;SDS011;54862;51.502;7.446;2022-07-17T12:58:36;5.93;;;2.03;;
68072;SDS011;54862;51.502;7.446;2022-07-17T13:01:02;4.90;;;1.70;;
68072;SDS011;54862;51.502;7.446;2022-07-17T13:03:29;3.58;;;1.60;;
68072;SDS011;54862;51.502;7.446;2022-07-17T13:05:55;6.40;;;1.80;;
68072;SDS011;54862;51.502;7.446;2022-07-17T13:08:21;4.53;;;1.73;;
68072;SDS011;54862;51.502;7.446;2022-07-17T13:10:47;4.35;;;1.70;;
68072;SDS011;54862;51.502;7.446;2022-07-17T13:13:13;5.20;;;1.70;;
68072;SDS011;54862;51.502;7.446;2022-07-17T13:15:39;6.25;;;2.22;;
68072;SDS011;54862;51.502;7.446;2022-07-17T13:18:05;5.50;;;2.15;;
68072;SDS011;54862;51.502;7.446;2022-07-17T13:20:31;8.63;;;1.98;;
68072;SDS011;54862;51.502;7.446;2022-07-17T13:22:57;3.28;;;1.80;;
68072;SDS011;54862;51.502;7.446;2022-07-17T13:25:23;4.15;;;1.85;;
68072;SDS011;54862;51.502;7.446;2022-07-17T13:30:41;7.38;;;1.83;;
68072;SDS011;54862;51.502;7.446;2022-07-17T13:33:07;6.03;;;1.98;;
68072;SDS011;54862;51.502;7.446;2022-07-17T13:35:33;4.15;;;1.70;;
68072;SDS011;54862;51.502;7.446;2022-07-17T13:37:59;4.85;;;1.92;;
68072;SDS011;54862;51.502;7.446;2022-07-17T13:40:28;3.33;;;1.58;;
68072;SDS011;54862;51.502;7.446;2022-07-17T13:42:54;3.42;;;1.55;;
68072;SDS011;54862;51.502;7.446;2022-07-17T13:45:20;8.13;;;3.72;;
68072;SDS011;54862;51.502;7.446;2022-07-17T13:47:46;7.32;;;2.85;;
68072;SDS011;54862;51.502;7.446;2022-07-17T13:50:12;4.85;;;2.20;;
68072;SDS011;54862;51.502;7.446;2022-07-17T13:52:38;4.07;;;1.65;;
68072;SDS011;54862;51.502;7.446;2022-07-17T13:55:05;3.97;;;1.60;;
68072;SDS011;54862;51.502;7.446;2022-07-17T13:57:31;5.47;;;1.65;;
68072;SDS011;54862;51.502;7.446;2022-07-17T13:59:57;3.65;;;1.60;;
68072;SDS011;54862;51.502;7.446;2022-07-17T14:02:24;3.95;;;1.60;;
68072;SDS011;54862;51.502;7.446;2022-07-17T14:04:50;3.83;;;1.70;;
68072;SDS011;54862;51.502;7.446;2022-07-17T14:07:16;5.25;;;1.60;;
68072;SDS011;54862;51.502;7.446;2022-07-17T14:09:42;4.10;;;1.63;;
68072;SDS011;54862;51.502;7.446;2022-07-17T14:12:08;3.05;;;1.63;;
68072;SDS011;54862;51.502;7.446;2022-07-17T14:14:34;4.43;;;1.80;;
68072;SDS011;54862;51.502;7.446;2022-07-17T14:17:00;4.38;;;2.20;;
68072;SDS011;54862;51.502;7.446;2022-07-17T14:19:26;6.72;;;3.00;;
68072;SDS011;54862;51.502;7.446;2022-07-17T14:21:52;5.50;;;1.88;;
68072;SDS011;54862;51.502;7.446;2022-07-17T14:24:18;3.35;;;1.52;;
68072;SDS011;54862;51.502;7.446;2022-07-17T14:26:44;3.78;;;1.73;;
68072;SDS011;54862;51.502;7.446;2022-07-17T14:29:12;3.55;;;1.63;;
68072;SDS011;54862;51.502;7.446;2022-07-17T14:31:38;3.05;;;1.58;;
68072;SDS011;54862;51.502;7.446;2022-07-17T14:34:04;3.22;;;1.65;;
68072;SDS011;54862;51.502;7.446;2022-07-17T14:36:30;5.22;;;1.80;;
68072;SDS011;54862;51.502;7.446;2022-07-17T14:38:56;2.70;;;1.50;;
68072;SDS011;54862;51.502;7.446;2022-07-17T14:41:22;3.60;;;1.88;;
68072;SDS011;54862;51.502;7.446;2022-07-17T14:43:48;4.43;;;1.80;;
68072;SDS011;54862;51.502;7.446;2022-07-17T14:46:14;4.78;;;1.60;;
68072;SDS011;54862;51.502;7.446;2022-07-17T14:48:40;3.78;;;1.90;;
68072;SDS011;54862;51.502;7.446;2022-07-17T14:51:06;2.75;;;1.75;;
68072;SDS011;54862;51.502;7.446;2022-07-17T14:53:32;5.30;;;1.80;;
68072;SDS011;54862;51.502;7.446;2022-07-17T14:55:58;3.92;;;1.80;;
68072;SDS011;54862;51.502;7.446;2022-07-17T14:58:25;4.57;;;1.83;;